sensor_id;sensor_type;location;lat;lon;timestamp;P1;durP1;ratioP1;P2;durP2;ratioP2
34541;SDS011;20784;51.332;12.410;2022-11-14T00:02:20;57.05;;;33.00;;
34541;SDS011;20784;51.332;12.410;2022-11-14T00:04:46;58.53;;;34.67;;
34541;SDS011;20784;51.332;12.410;2022-11-14T00:07:12;58.55;;;34.13;;
34541;SDS011;20784;51.332;12.410;2022-11-14T00:09:38;54.38;;;32.03;;
34541;SDS011;20784;51.332;12.410;2022-11-14T00:12:07;52.88;;;30.83;;
34541;SDS011;20784;51.332;12.410;2022-11-14T00:14:36;55.83;;;32.20;;
34541;SDS011;20784;51.332;12.410;2022-11-14T00:17:02;59.75;;;33.80;;
34541;SDS011;20784;51.332;12.410;2022-11-14T00:19:28;53.83;;;30.92;;
34541;SDS011;20784;51.332;12.410;2022-11-14T00:21:54;55.65;;;33.25;;
34541;SDS011;20784;51.332;12.410;2022-11-14T00:24:20;57.78;;;32.45;;
34541;SDS011;20784;51.332;12.410;2022-11-14T00:26:45;57.65;;;32.88;;
34541;SDS011;20784;51.332;12.410;2022-11-14T00:29:14;56.33;;;32.83;;
34541;SDS011;20784;51.332;12.410;2022-11-14T00:31:40;57.03;;;32.85;;
34541;SDS011;20784;51.332;12.410;2022-11-14T00:34:06;55.22;;;32.05;;
34541;SDS011;20784;51.332;12.410;2022-11-14T00:36:32;57.85;;;32.78;;
34541;SDS011;20784;51.332;12.410;2022-11-14T00:38:58;55.92;;;31.85;;
34541;SDS011;20784;51.332;12.410;2022-11-14T00:41:24;52.88;;;32.72;;
34541;SDS011;20784;51.332;12.410;2022-11-14T00:43:50;53.30;;;32.38;;
34541;SDS011;20784;51.332;12.410;2022-11-14T00:46:16;50.88;;;30.88;;
34541;SDS011;20784;51.332;12.410;2022-11-14T00:48:42;55.17;;;32.22;;
34541;SDS011;20784;51.332;12.410;2022-11-14T00:51:08;54.50;;;33.28;;
34541;SDS011;20784;51.332;12.410;2022-11-14T00:53:33;55.88;;;32.58;;
34541;SDS011;20784;51.332;12.410;2022-11-14T00:55:59;59.60;;;34.30;;
34541;SDS011;20784;51.332;12.410;2022-11-14T00:58:25;56.67;;;32.30;;
34541;SDS011;20784;51.332;12.410;2022-11-14T01:00:51;56.42;;;32.63;;
34541;SDS011;20784;51.332;12.410;2022-11-14T01:03:17;61.00;;;34.75;;
34541;SDS011;20784;51.332;12.410;2022-11-14T01:05:43;61.05;;;35.42;;
34541;SDS011;20784;51.332;12.410;2022-11-14T01:08:11;62.33;;;33.53;;
34541;SDS011;20784;51.332;12.410;2022-11-14T01:10:41;50.17;;;32.35;;
34541;SDS011;20784;51.332;12.410;2022-11-14T01:13:08;51.95;;;31.88;;
34541;SDS011;20784;51.332;12.410;2022-11-14T01:15:38;61.67;;;32.28;;
34541;SDS011;20784;51.332;12.410;2022-11-14T01:18:13;64.07;;;34.08;;
34541;SDS011;20784;51.332;12.410;2022-11-14T01:20:41;54.80;;;33.00;;
34541;SDS011;20784;51.332;12.410;2022-11-14T01:23:07;56.65;;;32.00;;
34541;SDS011;20784;51.332;12.410;2022-11-14T01:25:35;55.53;;;32.85;;
34541;SDS011;20784;51.332;12.410;2022-11-14T01:28:04;52.83;;;30.65;;
34541;SDS011;20784;51.332;12.410;2022-11-14T01:30:31;55.35;;;31.30;;
34541;SDS011;20784;51.332;12.410;2022-11-14T01:32:57;49.72;;;31.67;;
34541;SDS011;20784;51.332;12.410;2022-11-14T01:35:22;56.80;;;32.92;;
34541;SDS011;20784;51.332;12.410;2022-11-14T01:37:48;53.20;;;31.70;;
34541;SDS011;20784;51.332;12.410;2022-11-14T01:40:14;53.45;;;31.50;;
34541;SDS011;20784;51.332;12.410;2022-11-14T01:42:40;52.20;;;32.47;;
34541;SDS011;20784;51.332;12.410;2022-11-14T01:48:12;54.20;;;31.20;;
34541;SDS011;20784;51.332;12.410;2022-11-14T01:51:07;47.95;;;30.00;;
34541;SDS011;20784;51.332;12.410;2022-11-14T01:53:35;52.97;;;31.33;;
34541;SDS011;20784;51.332;12.410;2022-11-14T01:56:02;50.13;;;30.60;;
34541;SDS011;20784;51.332;12.410;2022-11-14T01:58:29;50.60;;;29.95;;
34541;SDS011;20784;51.332;12.410;2022-11-14T02:00:57;50.70;;;30.08;;
34541;SDS011;20784;51.332;12.410;2022-11-14T02:03:23;50.00;;;30.38;;
34541;SDS011;20784;51.332;12.410;2022-11-14T02:05:49;48.97;;;30.00;;
34541;SDS011;20784;51.332;12.410;2022-11-14T02:08:15;48.22;;;29.60;;
34541;SDS011;20784;51.332;12.410;2022-11-14T02:10:42;52.97;;;29.75;;
34541;SDS011;20784;51.332;12.410;2022-11-14T02:13:08;46.33;;;29.33;;
34541;SDS011;20784;51.332;12.410;2022-11-14T02:15:34;48.58;;;29.88;;
34541;SDS011;20784;51.332;12.410;2022-11-14T02:18:00;51.17;;;29.10;;
34541;SDS011;20784;51.332;12.410;2022-11-14T02:20:27;49.45;;;30.35;;
34541;SDS011;20784;51.332;12.410;2022-11-14T02:22:56;49.85;;;29.40;;
34541;SDS011;20784;51.332;12.410;2022-11-14T02:25:22;47.40;;;28.50;;
34541;SDS011;20784;51.332;12.410;2022-11-14T02:27:48;43.83;;;28.85;;
34541;SDS011;20784;51.332;12.410;2022-11-14T02:30:16;46.30;;;28.33;;
34541;SDS011;20784;51.332;12.410;2022-11-14T02:32:44;51.05;;;29.88;;
34541;SDS011;20784;51.332;12.410;2022-11-14T02:35:10;49.15;;;29.52;;
34541;SDS011;20784;51.332;12.410;2022-11-14T02:37:35;47.13;;;28.38;;
34541;SDS011;20784;51.332;12.410;2022-11-14T02:40:04;48.80;;;29.20;;
34541;SDS011;20784;51.332;12.410;2022-11-14T02:42:30;47.50;;;28.80;;
34541;SDS011;20784;51.332;12.410;2022-11-14T02:44:56;45.88;;;28.20;;
34541;SDS011;20784;51.332;12.410;2022-11-14T02:47:22;51.67;;;29.38;;
34541;SDS011;20784;51.332;12.410;2022-11-14T02:49:49;50.33;;;29.83;;
34541;SDS011;20784;51.332;12.410;2022-11-14T02:52:15;53.17;;;29.33;;
34541;SDS011;20784;51.332;12.410;2022-11-14T02:54:41;51.60;;;28.83;;
34541;SDS011;20784;51.332;12.410;2022-11-14T02:57:07;50.60;;;29.90;;
34541;SDS011;20784;51.332;12.410;2022-11-14T02:59:32;48.83;;;29.33;;
34541;SDS011;20784;51.332;12.410;2022-11-14T03:01:58;49.97;;;28.45;;
34541;SDS011;20784;51.332;12.410;2022-11-14T03:04:27;52.63;;;28.58;;
34541;SDS011;20784;51.332;12.410;2022-11-14T03:06:52;49.67;;;28.60;;
34541;SDS011;20784;51.332;12.410;2022-11-14T03:09:18;45.00;;;26.77;;
34541;SDS011;20784;51.332;12.410;2022-11-14T03:11:44;47.47;;;27.73;;
34541;SDS011;20784;51.332;12.410;2022-11-14T03:14:12;44.80;;;26.80;;
34541;SDS011;20784;51.332;12.410;2022-11-14T03:16:38;45.17;;;26.00;;
34541;SDS011;20784;51.332;12.410;2022-11-14T03:19:04;43.53;;;26.58;;
34541;SDS011;20784;51.332;12.410;2022-11-14T03:21:32;42.15;;;26.08;;
34541;SDS011;20784;51.332;12.410;2022-11-14T03:23:58;48.90;;;27.02;;
34541;SDS011;20784;51.332;12.410;2022-11-14T03:26:25;39.22;;;24.65;;
34541;SDS011;20784;51.332;12.410;2022-11-14T03:28:51;43.10;;;26.80;;
34541;SDS011;20784;51.332;12.410;2022-11-14T03:31:19;42.88;;;26.52;;
34541;SDS011;20784;51.332;12.410;2022-11-14T03:33:44;44.15;;;26.85;;
34541;SDS011;20784;51.332;12.410;2022-11-14T03:36:10;44.65;;;27.42;;
34541;SDS011;20784;51.332;12.410;2022-11-14T03:38:35;42.22;;;27.10;;
34541;SDS011;20784;51.332;12.410;2022-11-14T03:41:01;44.40;;;26.65;;
34541;SDS011;20784;51.332;12.410;2022-11-14T03:43:31;41.85;;;25.65;;
34541;SDS011;20784;51.332;12.410;2022-11-14T03:45:58;41.45;;;25.60;;
34541;SDS011;20784;51.332;12.410;2022-11-14T03:48:25;37.97;;;23.73;;
34541;SDS011;20784;51.332;12.410;2022-11-14T03:50:51;40.22;;;25.25;;
34541;SDS011;20784;51.332;12.410;2022-11-14T03:53:16;36.42;;;24.15;;
34541;SDS011;20784;51.332;12.410;2022-11-14T03:55:42;40.03;;;23.48;;
34541;SDS011;20784;51.332;12.410;2022-11-14T03:58:08;38.85;;;25.00;;
34541;SDS011;20784;51.332;12.410;2022-11-14T04:00:34;37.72;;;23.55;;
34541;SDS011;20784;51.332;12.410;2022-11-14T04:02:59;40.92;;;24.38;;
34541;SDS011;20784;51.332;12.410;2022-11-14T04:05:25;37.03;;;22.70;;
34541;SDS011;20784;51.332;12.410;2022-11-14T04:07:51;39.53;;;24.13;;
34541;SDS011;20784;51.332;12.410;2022-11-14T04:10:16;38.65;;;23.65;;
34541;SDS011;20784;51.332;12.410;2022-11-14T04:12:49;38.60;;;23.17;;
34541;SDS011;20784;51.332;12.410;2022-11-14T04:15:16;36.70;;;22.33;;
34541;SDS011;20784;51.332;12.410;2022-11-14T04:17:42;36.30;;;23.25;;
34541;SDS011;20784;51.332;12.410;2022-11-14T04:20:08;37.78;;;23.45;;
34541;SDS011;20784;51.332;12.410;2022-11-14T04:22:35;38.40;;;23.65;;
34541;SDS011;20784;51.332;12.410;2022-11-14T04:25:01;38.65;;;24.30;;
34541;SDS011;20784;51.332;12.410;2022-11-14T04:27:27;37.72;;;24.42;;
34541;SDS011;20784;51.332;12.410;2022-11-14T04:29:52;41.67;;;24.35;;
34541;SDS011;20784;51.332;12.410;2022-11-14T04:32:18;38.08;;;23.25;;
34541;SDS011;20784;51.332;12.410;2022-11-14T04:34:44;35.40;;;23.45;;
34541;SDS011;20784;51.332;12.410;2022-11-14T04:37:09;39.55;;;23.23;;
34541;SDS011;20784;51.332;12.410;2022-11-14T04:39:35;35.85;;;22.15;;
34541;SDS011;20784;51.332;12.410;2022-11-14T04:42:00;36.30;;;22.70;;
34541;SDS011;20784;51.332;12.410;2022-11-14T04:44:26;36.90;;;22.23;;
34541;SDS011;20784;51.332;12.410;2022-11-14T04:46:52;40.97;;;21.98;;
34541;SDS011;20784;51.332;12.410;2022-11-14T04:49:17;35.92;;;22.85;;
34541;SDS011;20784;51.332;12.410;2022-11-14T04:51:43;38.10;;;23.40;;
34541;SDS011;20784;51.332;12.410;2022-11-14T04:54:09;35.75;;;22.23;;
34541;SDS011;20784;51.332;12.410;2022-11-14T04:56:34;34.65;;;22.77;;
34541;SDS011;20784;51.332;12.410;2022-11-14T04:59:00;36.72;;;21.90;;
34541;SDS011;20784;51.332;12.410;2022-11-14T05:01:26;35.38;;;22.75;;
34541;SDS011;20784;51.332;12.410;2022-11-14T05:03:51;40.00;;;23.80;;
34541;SDS011;20784;51.332;12.410;2022-11-14T05:06:17;36.38;;;21.60;;
34541;SDS011;20784;51.332;12.410;2022-11-14T05:08:42;41.22;;;24.15;;
34541;SDS011;20784;51.332;12.410;2022-11-14T05:11:12;37.88;;;22.60;;
34541;SDS011;20784;51.332;12.410;2022-11-14T05:13:39;33.28;;;21.95;;
34541;SDS011;20784;51.332;12.410;2022-11-14T05:16:05;36.38;;;22.08;;
34541;SDS011;20784;51.332;12.410;2022-11-14T05:18:30;38.42;;;22.17;;
34541;SDS011;20784;51.332;12.410;2022-11-14T05:20:57;33.70;;;22.00;;
34541;SDS011;20784;51.332;12.410;2022-11-14T05:23:23;34.20;;;21.45;;
34541;SDS011;20784;51.332;12.410;2022-11-14T05:25:59;38.55;;;22.73;;
34541;SDS011;20784;51.332;12.410;2022-11-14T05:28:30;37.65;;;22.60;;
34541;SDS011;20784;51.332;12.410;2022-11-14T05:31:06;36.70;;;22.05;;
34541;SDS011;20784;51.332;12.410;2022-11-14T05:33:34;35.78;;;22.10;;
34541;SDS011;20784;51.332;12.410;2022-11-14T05:36:00;36.85;;;22.58;;
34541;SDS011;20784;51.332;12.410;2022-11-14T05:38:30;35.60;;;22.30;;
34541;SDS011;20784;51.332;12.410;2022-11-14T05:40:58;34.90;;;21.73;;
34541;SDS011;20784;51.332;12.410;2022-11-14T05:43:24;37.15;;;23.55;;
34541;SDS011;20784;51.332;12.410;2022-11-14T05:45:52;37.53;;;22.10;;
34541;SDS011;20784;51.332;12.410;2022-11-14T05:48:22;37.65;;;22.90;;
34541;SDS011;20784;51.332;12.410;2022-11-14T05:50:48;36.35;;;21.48;;
34541;SDS011;20784;51.332;12.410;2022-11-14T05:53:20;35.47;;;22.92;;
34541;SDS011;20784;51.332;12.410;2022-11-14T05:55:46;38.05;;;22.77;;
34541;SDS011;20784;51.332;12.410;2022-11-14T05:58:12;36.72;;;22.23;;
34541;SDS011;20784;51.332;12.410;2022-11-14T06:00:37;57.00;;;31.67;;
34541;SDS011;20784;51.332;12.410;2022-11-14T06:03:03;38.10;;;23.52;;
34541;SDS011;20784;51.332;12.410;2022-11-14T06:05:29;39.83;;;25.35;;
34541;SDS011;20784;51.332;12.410;2022-11-14T06:07:55;45.60;;;29.30;;
34541;SDS011;20784;51.332;12.410;2022-11-14T06:10:21;43.65;;;25.85;;
34541;SDS011;20784;51.332;12.410;2022-11-14T06:12:47;49.22;;;28.52;;
34541;SDS011;20784;51.332;12.410;2022-11-14T06:15:12;39.03;;;24.13;;
34541;SDS011;20784;51.332;12.410;2022-11-14T06:17:38;39.10;;;23.17;;
34541;SDS011;20784;51.332;12.410;2022-11-14T06:20:04;48.90;;;25.33;;
34541;SDS011;20784;51.332;12.410;2022-11-14T06:22:30;40.08;;;23.20;;
34541;SDS011;20784;51.332;12.410;2022-11-14T06:24:57;35.67;;;22.48;;
34541;SDS011;20784;51.332;12.410;2022-11-14T06:27:22;41.83;;;23.52;;
34541;SDS011;20784;51.332;12.410;2022-11-14T06:29:48;39.67;;;23.83;;
34541;SDS011;20784;51.332;12.410;2022-11-14T06:32:14;37.75;;;23.88;;
34541;SDS011;20784;51.332;12.410;2022-11-14T06:34:39;39.58;;;23.02;;
34541;SDS011;20784;51.332;12.410;2022-11-14T06:37:05;39.55;;;23.40;;
34541;SDS011;20784;51.332;12.410;2022-11-14T06:39:30;41.83;;;23.63;;
34541;SDS011;20784;51.332;12.410;2022-11-14T06:41:56;45.70;;;22.77;;
34541;SDS011;20784;51.332;12.410;2022-11-14T06:44:22;40.67;;;23.42;;
34541;SDS011;20784;51.332;12.410;2022-11-14T06:46:50;37.72;;;22.45;;
34541;SDS011;20784;51.332;12.410;2022-11-14T06:49:15;38.92;;;23.60;;
34541;SDS011;20784;51.332;12.410;2022-11-14T06:51:43;49.78;;;25.17;;
34541;SDS011;20784;51.332;12.410;2022-11-14T06:54:12;36.65;;;22.98;;
34541;SDS011;20784;51.332;12.410;2022-11-14T06:56:38;35.22;;;22.65;;
34541;SDS011;20784;51.332;12.410;2022-11-14T06:59:03;37.33;;;21.73;;
34541;SDS011;20784;51.332;12.410;2022-11-14T07:01:29;33.92;;;21.50;;
34541;SDS011;20784;51.332;12.410;2022-11-14T07:03:55;35.97;;;22.17;;
34541;SDS011;20784;51.332;12.410;2022-11-14T07:06:24;35.83;;;21.23;;
34541;SDS011;20784;51.332;12.410;2022-11-14T07:08:51;31.55;;;20.75;;
34541;SDS011;20784;51.332;12.410;2022-11-14T07:11:21;37.25;;;20.58;;
34541;SDS011;20784;51.332;12.410;2022-11-14T07:13:53;35.72;;;21.83;;
34541;SDS011;20784;51.332;12.410;2022-11-14T07:16:29;39.58;;;20.02;;
34541;SDS011;20784;51.332;12.410;2022-11-14T07:18:59;28.80;;;18.67;;
34541;SDS011;20784;51.332;12.410;2022-11-14T07:21:36;33.40;;;19.38;;
34541;SDS011;20784;51.332;12.410;2022-11-14T07:24:05;29.40;;;19.38;;
34541;SDS011;20784;51.332;12.410;2022-11-14T07:26:31;31.20;;;19.55;;
34541;SDS011;20784;51.332;12.410;2022-11-14T07:28:59;30.92;;;18.67;;
34541;SDS011;20784;51.332;12.410;2022-11-14T07:31:27;31.98;;;18.85;;
34541;SDS011;20784;51.332;12.410;2022-11-14T07:33:53;26.00;;;17.90;;
34541;SDS011;20784;51.332;12.410;2022-11-14T07:36:19;24.55;;;17.30;;
34541;SDS011;20784;51.332;12.410;2022-11-14T07:38:44;22.25;;;16.15;;
34541;SDS011;20784;51.332;12.410;2022-11-14T07:41:13;23.85;;;16.23;;
34541;SDS011;20784;51.332;12.410;2022-11-14T07:43:40;24.20;;;16.17;;
34541;SDS011;20784;51.332;12.410;2022-11-14T07:46:08;18.95;;;15.10;;
34541;SDS011;20784;51.332;12.410;2022-11-14T07:48:38;20.67;;;15.60;;
34541;SDS011;20784;51.332;12.410;2022-11-14T07:51:16;20.95;;;15.82;;
34541;SDS011;20784;51.332;12.410;2022-11-14T07:53:44;21.00;;;14.50;;
34541;SDS011;20784;51.332;12.410;2022-11-14T07:56:15;18.83;;;14.68;;
34541;SDS011;20784;51.332;12.410;2022-11-14T07:58:58;22.23;;;14.63;;
34541;SDS011;20784;51.332;12.410;2022-11-14T08:01:31;17.20;;;13.30;;
34541;SDS011;20784;51.332;12.410;2022-11-14T08:03:57;19.73;;;14.63;;
34541;SDS011;20784;51.332;12.410;2022-11-14T08:06:23;19.42;;;14.63;;
34541;SDS011;20784;51.332;12.410;2022-11-14T08:08:48;24.23;;;13.85;;
34541;SDS011;20784;51.332;12.410;2022-11-14T08:11:14;21.58;;;14.65;;
34541;SDS011;20784;51.332;12.410;2022-11-14T08:13:40;19.00;;;14.50;;
34541;SDS011;20784;51.332;12.410;2022-11-14T08:16:08;19.88;;;14.73;;
34541;SDS011;20784;51.332;12.410;2022-11-14T08:18:35;19.25;;;13.80;;
34541;SDS011;20784;51.332;12.410;2022-11-14T08:21:04;18.25;;;14.75;;
34541;SDS011;20784;51.332;12.410;2022-11-14T08:23:30;20.42;;;15.20;;
34541;SDS011;20784;51.332;12.410;2022-11-14T08:26:01;19.13;;;14.30;;
34541;SDS011;20784;51.332;12.410;2022-11-14T08:28:27;19.83;;;14.40;;
34541;SDS011;20784;51.332;12.410;2022-11-14T08:30:57;17.13;;;14.32;;
34541;SDS011;20784;51.332;12.410;2022-11-14T08:33:24;15.82;;;14.02;;
34541;SDS011;20784;51.332;12.410;2022-11-14T08:35:49;17.23;;;14.02;;
34541;SDS011;20784;51.332;12.410;2022-11-14T08:38:15;19.48;;;14.43;;
34541;SDS011;20784;51.332;12.410;2022-11-14T08:40:41;17.55;;;14.00;;
34541;SDS011;20784;51.332;12.410;2022-11-14T08:43:07;19.48;;;14.38;;
34541;SDS011;20784;51.332;12.410;2022-11-14T08:45:35;17.63;;;14.77;;
34541;SDS011;20784;51.332;12.410;2022-11-14T08:48:03;19.27;;;14.20;;
34541;SDS011;20784;51.332;12.410;2022-11-14T08:50:29;17.42;;;14.43;;
34541;SDS011;20784;51.332;12.410;2022-11-14T08:56:00;16.90;;;13.93;;
34541;SDS011;20784;51.332;12.410;2022-11-14T08:58:30;19.77;;;13.70;;
34541;SDS011;20784;51.332;12.410;2022-11-14T09:01:04;16.60;;;13.70;;
34541;SDS011;20784;51.332;12.410;2022-11-14T09:03:36;17.60;;;14.50;;
34541;SDS011;20784;51.332;12.410;2022-11-14T09:06:10;15.70;;;13.15;;
34541;SDS011;20784;51.332;12.410;2022-11-14T09:08:36;16.83;;;13.63;;
34541;SDS011;20784;51.332;12.410;2022-11-14T09:11:02;19.80;;;13.70;;
34541;SDS011;20784;51.332;12.410;2022-11-14T09:13:33;15.70;;;12.98;;
34541;SDS011;20784;51.332;12.410;2022-11-14T09:15:59;16.38;;;13.32;;
34541;SDS011;20784;51.332;12.410;2022-11-14T09:18:25;19.00;;;13.43;;
34541;SDS011;20784;51.332;12.410;2022-11-14T09:20:51;17.38;;;13.93;;
34541;SDS011;20784;51.332;12.410;2022-11-14T09:23:17;17.48;;;13.70;;
34541;SDS011;20784;51.332;12.410;2022-11-14T09:25:43;15.63;;;12.77;;
34541;SDS011;20784;51.332;12.410;2022-11-14T09:28:09;14.93;;;12.32;;
34541;SDS011;20784;51.332;12.410;2022-11-14T09:30:37;15.05;;;12.43;;
34541;SDS011;20784;51.332;12.410;2022-11-14T09:33:05;15.18;;;12.52;;
34541;SDS011;20784;51.332;12.410;2022-11-14T09:35:33;18.38;;;12.73;;
34541;SDS011;20784;51.332;12.410;2022-11-14T09:38:15;14.55;;;12.20;;
34541;SDS011;20784;51.332;12.410;2022-11-14T09:40:50;13.55;;;11.50;;
34541;SDS011;20784;51.332;12.410;2022-11-14T09:43:22;13.35;;;11.93;;
34541;SDS011;20784;51.332;12.410;2022-11-14T09:46:13;16.42;;;12.27;;
34541;SDS011;20784;51.332;12.410;2022-11-14T09:48:44;13.23;;;11.77;;
34541;SDS011;20784;51.332;12.410;2022-11-14T09:51:17;14.55;;;11.70;;
34541;SDS011;20784;51.332;12.410;2022-11-14T09:53:56;15.18;;;12.18;;
34541;SDS011;20784;51.332;12.410;2022-11-14T09:56:30;17.55;;;12.05;;
34541;SDS011;20784;51.332;12.410;2022-11-14T09:58:56;13.80;;;12.00;;
34541;SDS011;20784;51.332;12.410;2022-11-14T10:06:55;17.00;;;11.55;;
34541;SDS011;20784;51.332;12.410;2022-11-14T10:15:50;14.18;;;11.77;;
34541;SDS011;20784;51.332;12.410;2022-11-14T10:18:29;14.55;;;11.00;;
34541;SDS011;20784;51.332;12.410;2022-11-14T10:24:13;11.85;;;10.35;;
34541;SDS011;20784;51.332;12.410;2022-11-14T10:27:03;11.63;;;10.43;;
34541;SDS011;20784;51.332;12.410;2022-11-14T10:34:55;11.63;;;10.43;;
34541;SDS011;20784;51.332;12.410;2022-11-14T10:40:38;10.73;;;9.63;;
34541;SDS011;20784;51.332;12.410;2022-11-14T10:43:21;12.02;;;10.82;;
34541;SDS011;20784;51.332;12.410;2022-11-14T10:45:52;13.98;;;10.77;;
34541;SDS011;20784;51.332;12.410;2022-11-14T10:48:44;13.77;;;10.20;;
34541;SDS011;20784;51.332;12.410;2022-11-14T10:51:14;12.45;;;9.90;;
34541;SDS011;20784;51.332;12.410;2022-11-14T10:56:48;17.00;;;10.60;;
34541;SDS011;20784;51.332;12.410;2022-11-14T10:59:15;11.10;;;9.90;;
34541;SDS011;20784;51.332;12.410;2022-11-14T11:04:33;10.75;;;9.23;;
34541;SDS011;20784;51.332;12.410;2022-11-14T11:09:33;12.45;;;9.23;;
34541;SDS011;20784;51.332;12.410;2022-11-14T11:15:20;12.40;;;8.93;;
34541;SDS011;20784;51.332;12.410;2022-11-14T11:18:00;9.93;;;8.10;;
34541;SDS011;20784;51.332;12.410;2022-11-14T11:20:40;11.57;;;9.15;;
34541;SDS011;20784;51.332;12.410;2022-11-14T11:23:27;12.32;;;8.25;;
34541;SDS011;20784;51.332;12.410;2022-11-14T11:26:02;9.50;;;8.27;;
34541;SDS011;20784;51.332;12.410;2022-11-14T11:28:40;9.38;;;8.48;;
34541;SDS011;20784;51.332;12.410;2022-11-14T11:31:07;9.57;;;8.57;;
34541;SDS011;20784;51.332;12.410;2022-11-14T11:33:38;15.18;;;8.20;;
34541;SDS011;20784;51.332;12.410;2022-11-14T11:36:19;10.50;;;8.63;;
34541;SDS011;20784;51.332;12.410;2022-11-14T11:38:47;9.32;;;8.30;;
34541;SDS011;20784;51.332;12.410;2022-11-14T11:41:30;8.45;;;7.47;;
34541;SDS011;20784;51.332;12.410;2022-11-14T11:44:00;10.80;;;8.40;;
34541;SDS011;20784;51.332;12.410;2022-11-14T11:46:45;9.27;;;7.65;;
34541;SDS011;20784;51.332;12.410;2022-11-14T11:49:22;12.30;;;8.10;;
34541;SDS011;20784;51.332;12.410;2022-11-14T11:51:54;9.63;;;8.20;;
34541;SDS011;20784;51.332;12.410;2022-11-14T11:54:26;9.90;;;8.02;;
34541;SDS011;20784;51.332;12.410;2022-11-14T11:56:58;10.57;;;8.55;;
34541;SDS011;20784;51.332;12.410;2022-11-14T11:59:35;10.35;;;8.40;;
34541;SDS011;20784;51.332;12.410;2022-11-14T12:02:17;10.93;;;7.70;;
34541;SDS011;20784;51.332;12.410;2022-11-14T12:04:49;9.13;;;7.40;;
34541;SDS011;20784;51.332;12.410;2022-11-14T12:10:16;12.52;;;7.65;;
34541;SDS011;20784;51.332;12.410;2022-11-14T12:15:46;8.97;;;7.83;;
34541;SDS011;20784;51.332;12.410;2022-11-14T12:21:10;8.77;;;7.60;;
34541;SDS011;20784;51.332;12.410;2022-11-14T12:29:34;9.57;;;7.65;;
34541;SDS011;20784;51.332;12.410;2022-11-14T12:32:14;15.25;;;7.40;;
34541;SDS011;20784;51.332;12.410;2022-11-14T12:34:51;9.02;;;7.35;;
34541;SDS011;20784;51.332;12.410;2022-11-14T12:37:21;12.43;;;8.57;;
34541;SDS011;20784;51.332;12.410;2022-11-14T12:40:05;10.52;;;8.68;;
34541;SDS011;20784;51.332;12.410;2022-11-14T12:42:45;25.25;;;8.85;;
34541;SDS011;20784;51.332;12.410;2022-11-14T12:50:50;11.15;;;8.32;;
34541;SDS011;20784;51.332;12.410;2022-11-14T13:11:57;10.07;;;8.10;;
34541;SDS011;20784;51.332;12.410;2022-11-14T13:14:59;11.73;;;8.15;;
34541;SDS011;20784;51.332;12.410;2022-11-14T13:18:24;10.50;;;8.23;;
34541;SDS011;20784;51.332;12.410;2022-11-14T13:24:10;13.07;;;8.57;;
34541;SDS011;20784;51.332;12.410;2022-11-14T13:26:50;12.38;;;9.23;;
34541;SDS011;20784;51.332;12.410;2022-11-14T13:32:11;12.35;;;8.75;;
34541;SDS011;20784;51.332;12.410;2022-11-14T13:34:53;13.98;;;9.35;;
34541;SDS011;20784;51.332;12.410;2022-11-14T13:37:35;11.65;;;9.25;;
34541;SDS011;20784;51.332;12.410;2022-11-14T13:42:58;13.88;;;9.18;;
34541;SDS011;20784;51.332;12.410;2022-11-14T13:51:20;14.38;;;9.30;;
34541;SDS011;20784;51.332;12.410;2022-11-14T13:56:33;12.68;;;9.23;;
34541;SDS011;20784;51.332;12.410;2022-11-14T14:10:22;11.65;;;9.25;;
34541;SDS011;20784;51.332;12.410;2022-11-14T14:13:06;12.23;;;9.30;;
34541;SDS011;20784;51.332;12.410;2022-11-14T14:26:31;11.95;;;8.60;;
34541;SDS011;20784;51.332;12.410;2022-11-14T14:32:10;11.05;;;8.27;;
34541;SDS011;20784;51.332;12.410;2022-11-14T14:34:37;11.40;;;8.57;;
34541;SDS011;20784;51.332;12.410;2022-11-14T14:37:22;13.05;;;8.65;;
34541;SDS011;20784;51.332;12.410;2022-11-14T14:39:56;12.45;;;9.30;;
34541;SDS011;20784;51.332;12.410;2022-11-14T14:42:32;13.20;;;8.93;;
34541;SDS011;20784;51.332;12.410;2022-11-14T14:45:14;13.02;;;8.75;;
34541;SDS011;20784;51.332;12.410;2022-11-14T14:47:43;14.52;;;9.38;;
34541;SDS011;20784;51.332;12.410;2022-11-14T14:50:22;15.05;;;11.18;;
34541;SDS011;20784;51.332;12.410;2022-11-14T14:53:00;17.95;;;9.60;;
34541;SDS011;20784;51.332;12.410;2022-11-14T14:55:32;13.45;;;9.73;;
34541;SDS011;20784;51.332;12.410;2022-11-14T15:00:42;14.70;;;9.70;;
34541;SDS011;20784;51.332;12.410;2022-11-14T15:03:19;15.10;;;9.32;;
34541;SDS011;20784;51.332;12.410;2022-11-14T15:05:46;14.55;;;8.95;;
34541;SDS011;20784;51.332;12.410;2022-11-14T15:08:15;14.27;;;9.40;;
34541;SDS011;20784;51.332;12.410;2022-11-14T15:10:41;28.33;;;9.43;;
34541;SDS011;20784;51.332;12.410;2022-11-14T15:13:09;12.13;;;9.40;;
34541;SDS011;20784;51.332;12.410;2022-11-14T15:15:39;19.45;;;9.05;;
34541;SDS011;20784;51.332;12.410;2022-11-14T15:18:06;14.13;;;9.25;;
34541;SDS011;20784;51.332;12.410;2022-11-14T15:20:38;11.95;;;9.40;;
34541;SDS011;20784;51.332;12.410;2022-11-14T15:23:25;18.95;;;9.68;;
34541;SDS011;20784;51.332;12.410;2022-11-14T15:25:59;11.52;;;9.38;;
34541;SDS011;20784;51.332;12.410;2022-11-14T15:28:29;16.70;;;8.95;;
34541;SDS011;20784;51.332;12.410;2022-11-14T15:30:56;12.40;;;8.85;;
34541;SDS011;20784;51.332;12.410;2022-11-14T15:33:33;14.73;;;9.90;;
34541;SDS011;20784;51.332;12.410;2022-11-14T15:36:09;16.52;;;10.52;;
34541;SDS011;20784;51.332;12.410;2022-11-14T15:39:27;15.35;;;10.43;;
34541;SDS011;20784;51.332;12.410;2022-11-14T15:41:38;17.13;;;11.35;;
34541;SDS011;20784;51.332;12.410;2022-11-14T15:44:03;20.15;;;10.57;;
34541;SDS011;20784;51.332;12.410;2022-11-14T15:46:49;18.35;;;11.55;;
34541;SDS011;20784;51.332;12.410;2022-11-14T15:51:47;14.27;;;11.35;;
34541;SDS011;20784;51.332;12.410;2022-11-14T15:54:27;17.13;;;11.45;;
34541;SDS011;20784;51.332;12.410;2022-11-14T15:57:08;15.60;;;10.95;;
34541;SDS011;20784;51.332;12.410;2022-11-14T15:59:40;22.30;;;11.40;;
34541;SDS011;20784;51.332;12.410;2022-11-14T16:05:10;16.88;;;11.55;;
34541;SDS011;20784;51.332;12.410;2022-11-14T16:07:38;34.47;;;21.25;;
34541;SDS011;20784;51.332;12.410;2022-11-14T16:12:56;26.00;;;13.50;;
34541;SDS011;20784;51.332;12.410;2022-11-14T16:15:24;18.90;;;12.70;;
34541;SDS011;20784;51.332;12.410;2022-11-14T16:17:50;26.20;;;14.77;;
34541;SDS011;20784;51.332;12.410;2022-11-14T16:20:20;21.85;;;13.80;;
34541;SDS011;20784;51.332;12.410;2022-11-14T16:22:47;26.60;;;14.55;;
34541;SDS011;20784;51.332;12.410;2022-11-14T16:25:18;23.00;;;13.40;;
34541;SDS011;20784;51.332;12.410;2022-11-14T16:27:46;20.65;;;14.38;;
34541;SDS011;20784;51.332;12.410;2022-11-14T16:30:12;19.90;;;13.88;;
34541;SDS011;20784;51.332;12.410;2022-11-14T16:32:39;18.92;;;12.88;;
34541;SDS011;20784;51.332;12.410;2022-11-14T16:35:23;19.83;;;14.05;;
34541;SDS011;20784;51.332;12.410;2022-11-14T16:37:50;22.02;;;14.50;;
34541;SDS011;20784;51.332;12.410;2022-11-14T16:42:49;22.73;;;13.43;;